sensor_id;sensor_type;location;lat;lon;timestamp;P1;durP1;ratioP1;P2;durP2;ratioP2
2650;SDS011;1335;48.180;16.342;2022-11-13T00:00:39;15.03;;;11.37;;
2650;SDS011;1335;48.180;16.342;2022-11-13T00:03:06;15.50;;;10.03;;
2650;SDS011;1335;48.180;16.342;2022-11-13T00:05:34;13.87;;;10.97;;
2650;SDS011;1335;48.180;16.342;2022-11-13T00:08:04;14.97;;;10.90;;
2650;SDS011;1335;48.180;16.342;2022-11-13T00:10:31;13.87;;;10.60;;
2650;SDS011;1335;48.180;16.342;2022-11-13T00:12:58;13.47;;;11.83;;
2650;SDS011;1335;48.180;16.342;2022-11-13T00:15:26;16.63;;;10.93;;
2650;SDS011;1335;48.180;16.342;2022-11-13T00:17:54;13.97;;;11.10;;
2650;SDS011;1335;48.180;16.342;2022-11-13T00:20:25;14.20;;;11.50;;
2650;SDS011;1335;48.180;16.342;2022-11-13T00:22:52;13.40;;;11.30;;
2650;SDS011;1335;48.180;16.342;2022-11-13T00:25:21;15.23;;;11.27;;
2650;SDS011;1335;48.180;16.342;2022-11-13T00:27:49;12.03;;;9.53;;
2650;SDS011;1335;48.180;16.342;2022-11-13T00:30:16;14.10;;;10.83;;
2650;SDS011;1335;48.180;16.342;2022-11-13T00:32:50;15.93;;;11.23;;
2650;SDS011;1335;48.180;16.342;2022-11-13T00:35:20;11.10;;;9.90;;
2650;SDS011;1335;48.180;16.342;2022-11-13T00:37:53;15.27;;;11.13;;
2650;SDS011;1335;48.180;16.342;2022-11-13T00:40:22;19.90;;;12.60;;
2650;SDS011;1335;48.180;16.342;2022-11-13T00:42:49;13.00;;;11.60;;
2650;SDS011;1335;48.180;16.342;2022-11-13T00:45:16;16.43;;;12.00;;
2650;SDS011;1335;48.180;16.342;2022-11-13T00:47:43;13.13;;;10.93;;
2650;SDS011;1335;48.180;16.342;2022-11-13T00:50:10;14.03;;;10.50;;
2650;SDS011;1335;48.180;16.342;2022-11-13T00:52:37;18.27;;;11.43;;
2650;SDS011;1335;48.180;16.342;2022-11-13T00:55:05;17.40;;;12.50;;
2650;SDS011;1335;48.180;16.342;2022-11-13T00:57:34;12.10;;;10.23;;
2650;SDS011;1335;48.180;16.342;2022-11-13T01:00:01;11.60;;;9.70;;
2650;SDS011;1335;48.180;16.342;2022-11-13T01:02:29;15.00;;;11.87;;
2650;SDS011;1335;48.180;16.342;2022-11-13T01:04:56;12.57;;;10.63;;
2650;SDS011;1335;48.180;16.342;2022-11-13T01:07:23;13.70;;;11.00;;
2650;SDS011;1335;48.180;16.342;2022-11-13T01:09:51;16.80;;;11.23;;
2650;SDS011;1335;48.180;16.342;2022-11-13T01:12:18;15.50;;;11.33;;
2650;SDS011;1335;48.180;16.342;2022-11-13T01:14:47;16.80;;;11.20;;
2650;SDS011;1335;48.180;16.342;2022-11-13T01:17:14;14.23;;;12.63;;
2650;SDS011;1335;48.180;16.342;2022-11-13T01:19:41;19.77;;;13.97;;
2650;SDS011;1335;48.180;16.342;2022-11-13T01:22:08;17.43;;;13.47;;
2650;SDS011;1335;48.180;16.342;2022-11-13T01:24:35;22.10;;;14.90;;
2650;SDS011;1335;48.180;16.342;2022-11-13T01:27:03;20.17;;;13.60;;
2650;SDS011;1335;48.180;16.342;2022-11-13T01:29:30;18.33;;;15.37;;
2650;SDS011;1335;48.180;16.342;2022-11-13T01:31:58;19.10;;;15.03;;
2650;SDS011;1335;48.180;16.342;2022-11-13T01:34:25;23.13;;;15.73;;
2650;SDS011;1335;48.180;16.342;2022-11-13T01:36:53;23.00;;;15.83;;
2650;SDS011;1335;48.180;16.342;2022-11-13T01:39:20;20.10;;;15.97;;
2650;SDS011;1335;48.180;16.342;2022-11-13T01:41:47;17.80;;;14.40;;
2650;SDS011;1335;48.180;16.342;2022-11-13T01:44:15;19.63;;;15.87;;
2650;SDS011;1335;48.180;16.342;2022-11-13T01:46:44;23.17;;;15.60;;
2650;SDS011;1335;48.180;16.342;2022-11-13T01:49:17;24.30;;;16.37;;
2650;SDS011;1335;48.180;16.342;2022-11-13T01:51:52;18.20;;;15.00;;
2650;SDS011;1335;48.180;16.342;2022-11-13T01:54:21;21.30;;;15.70;;
2650;SDS011;1335;48.180;16.342;2022-11-13T01:56:51;19.33;;;14.80;;
2650;SDS011;1335;48.180;16.342;2022-11-13T01:59:20;20.20;;;15.70;;
2650;SDS011;1335;48.180;16.342;2022-11-13T02:01:49;25.10;;;16.90;;
2650;SDS011;1335;48.180;16.342;2022-11-13T02:04:18;18.93;;;16.00;;
2650;SDS011;1335;48.180;16.342;2022-11-13T02:06:46;19.67;;;15.00;;
2650;SDS011;1335;48.180;16.342;2022-11-13T02:09:17;20.83;;;16.10;;
2650;SDS011;1335;48.180;16.342;2022-11-13T02:11:47;16.33;;;14.53;;
2650;SDS011;1335;48.180;16.342;2022-11-13T02:14:14;21.60;;;15.73;;
2650;SDS011;1335;48.180;16.342;2022-11-13T02:16:44;16.93;;;14.30;;
2650;SDS011;1335;48.180;16.342;2022-11-13T02:19:16;21.40;;;15.47;;
2650;SDS011;1335;48.180;16.342;2022-11-13T02:21:51;21.13;;;16.63;;
2650;SDS011;1335;48.180;16.342;2022-11-13T02:24:29;17.87;;;14.73;;
2650;SDS011;1335;48.180;16.342;2022-11-13T02:26:59;17.53;;;14.43;;
2650;SDS011;1335;48.180;16.342;2022-11-13T02:29:30;20.13;;;14.87;;
2650;SDS011;1335;48.180;16.342;2022-11-13T02:31:57;19.43;;;15.87;;
2650;SDS011;1335;48.180;16.342;2022-11-13T02:34:24;21.93;;;16.83;;
2650;SDS011;1335;48.180;16.342;2022-11-13T02:36:52;16.17;;;14.37;;
2650;SDS011;1335;48.180;16.342;2022-11-13T02:39:19;17.63;;;15.33;;
2650;SDS011;1335;48.180;16.342;2022-11-13T02:41:48;16.10;;;14.40;;
2650;SDS011;1335;48.180;16.342;2022-11-13T02:44:15;21.90;;;16.77;;
2650;SDS011;1335;48.180;16.342;2022-11-13T02:46:45;17.63;;;15.43;;
2650;SDS011;1335;48.180;16.342;2022-11-13T02:49:12;19.30;;;15.50;;
2650;SDS011;1335;48.180;16.342;2022-11-13T02:51:39;20.67;;;14.10;;
2650;SDS011;1335;48.180;16.342;2022-11-13T02:54:06;18.80;;;16.30;;
2650;SDS011;1335;48.180;16.342;2022-11-13T02:56:33;17.43;;;15.33;;
2650;SDS011;1335;48.180;16.342;2022-11-13T02:59:02;21.10;;;18.13;;
2650;SDS011;1335;48.180;16.342;2022-11-13T03:01:29;25.73;;;20.10;;
2650;SDS011;1335;48.180;16.342;2022-11-13T03:03:56;24.20;;;18.83;;
2650;SDS011;1335;48.180;16.342;2022-11-13T03:06:23;18.80;;;16.90;;
2650;SDS011;1335;48.180;16.342;2022-11-13T03:08:50;24.40;;;20.63;;
2650;SDS011;1335;48.180;16.342;2022-11-13T03:11:18;25.43;;;21.27;;
2650;SDS011;1335;48.180;16.342;2022-11-13T03:13:45;26.97;;;21.60;;
2650;SDS011;1335;48.180;16.342;2022-11-13T03:16:14;28.27;;;21.70;;
2650;SDS011;1335;48.180;16.342;2022-11-13T03:18:42;27.30;;;21.80;;
2650;SDS011;1335;48.180;16.342;2022-11-13T03:21:10;29.47;;;22.80;;
2650;SDS011;1335;48.180;16.342;2022-11-13T03:23:39;29.00;;;23.70;;
2650;SDS011;1335;48.180;16.342;2022-11-13T03:26:09;27.20;;;22.77;;
2650;SDS011;1335;48.180;16.342;2022-11-13T03:28:38;27.17;;;23.27;;
2650;SDS011;1335;48.180;16.342;2022-11-13T03:31:05;29.87;;;24.57;;
2650;SDS011;1335;48.180;16.342;2022-11-13T03:33:34;29.87;;;24.70;;
2650;SDS011;1335;48.180;16.342;2022-11-13T03:36:01;36.33;;;27.00;;
2650;SDS011;1335;48.180;16.342;2022-11-13T03:38:28;40.20;;;27.47;;
2650;SDS011;1335;48.180;16.342;2022-11-13T03:40:56;51.63;;;28.17;;
2650;SDS011;1335;48.180;16.342;2022-11-13T03:43:23;49.13;;;30.90;;
2650;SDS011;1335;48.180;16.342;2022-11-13T03:45:50;49.33;;;29.70;;
2650;SDS011;1335;48.180;16.342;2022-11-13T03:48:17;53.87;;;30.40;;
2650;SDS011;1335;48.180;16.342;2022-11-13T03:50:46;80.33;;;31.90;;
2650;SDS011;1335;48.180;16.342;2022-11-13T03:53:15;109.00;;;33.27;;
2650;SDS011;1335;48.180;16.342;2022-11-13T03:55:42;68.60;;;32.00;;
2650;SDS011;1335;48.180;16.342;2022-11-13T03:58:09;57.23;;;32.60;;
2650;SDS011;1335;48.180;16.342;2022-11-13T04:00:37;77.70;;;34.27;;
2650;SDS011;1335;48.180;16.342;2022-11-13T04:03:06;104.53;;;37.00;;
2650;SDS011;1335;48.180;16.342;2022-11-13T04:05:33;96.37;;;35.40;;
2650;SDS011;1335;48.180;16.342;2022-11-13T04:08:01;138.53;;;38.07;;
2650;SDS011;1335;48.180;16.342;2022-11-13T04:10:28;103.77;;;36.50;;
2650;SDS011;1335;48.180;16.342;2022-11-13T04:12:55;66.23;;;36.37;;
2650;SDS011;1335;48.180;16.342;2022-11-13T04:15:23;66.97;;;35.40;;
2650;SDS011;1335;48.180;16.342;2022-11-13T04:17:50;75.80;;;35.40;;
2650;SDS011;1335;48.180;16.342;2022-11-13T04:20:17;72.43;;;35.37;;
2650;SDS011;1335;48.180;16.342;2022-11-13T04:22:44;80.13;;;37.63;;
2650;SDS011;1335;48.180;16.342;2022-11-13T04:25:12;54.07;;;34.07;;
2650;SDS011;1335;48.180;16.342;2022-11-13T04:27:40;85.53;;;39.10;;
2650;SDS011;1335;48.180;16.342;2022-11-13T04:30:07;57.80;;;36.07;;
2650;SDS011;1335;48.180;16.342;2022-11-13T04:32:35;65.83;;;35.73;;
2650;SDS011;1335;48.180;16.342;2022-11-13T04:35:02;56.50;;;37.03;;
2650;SDS011;1335;48.180;16.342;2022-11-13T04:37:30;41.70;;;32.93;;
2650;SDS011;1335;48.180;16.342;2022-11-13T04:39:57;70.00;;;34.83;;
2650;SDS011;1335;48.180;16.342;2022-11-13T04:42:25;46.97;;;33.57;;
2650;SDS011;1335;48.180;16.342;2022-11-13T04:45:10;50.33;;;36.57;;
2650;SDS011;1335;48.180;16.342;2022-11-13T04:47:37;99.40;;;35.67;;
2650;SDS011;1335;48.180;16.342;2022-11-13T04:50:04;86.40;;;35.57;;
2650;SDS011;1335;48.180;16.342;2022-11-13T04:52:32;85.63;;;36.20;;
2650;SDS011;1335;48.180;16.342;2022-11-13T04:54:59;133.57;;;37.47;;
2650;SDS011;1335;48.180;16.342;2022-11-13T04:57:28;60.97;;;39.93;;
2650;SDS011;1335;48.180;16.342;2022-11-13T04:59:55;50.27;;;35.00;;
2650;SDS011;1335;48.180;16.342;2022-11-13T05:02:22;48.40;;;34.50;;
2650;SDS011;1335;48.180;16.342;2022-11-13T05:04:49;76.37;;;33.97;;
2650;SDS011;1335;48.180;16.342;2022-11-13T05:07:16;56.00;;;35.63;;
2650;SDS011;1335;48.180;16.342;2022-11-13T05:09:44;64.23;;;37.07;;
2650;SDS011;1335;48.180;16.342;2022-11-13T05:12:11;56.17;;;35.43;;
2650;SDS011;1335;48.180;16.342;2022-11-13T05:14:39;64.00;;;37.83;;
2650;SDS011;1335;48.180;16.342;2022-11-13T05:17:07;73.30;;;36.80;;
2650;SDS011;1335;48.180;16.342;2022-11-13T05:19:36;86.73;;;38.03;;
2650;SDS011;1335;48.180;16.342;2022-11-13T05:22:04;99.53;;;37.73;;
2650;SDS011;1335;48.180;16.342;2022-11-13T05:24:31;76.07;;;40.40;;
2650;SDS011;1335;48.180;16.342;2022-11-13T05:26:58;70.43;;;41.50;;
2650;SDS011;1335;48.180;16.342;2022-11-13T05:29:25;139.13;;;41.07;;
2650;SDS011;1335;48.180;16.342;2022-11-13T05:31:54;128.93;;;38.53;;
2650;SDS011;1335;48.180;16.342;2022-11-13T05:34:21;89.13;;;35.73;;
2650;SDS011;1335;48.180;16.342;2022-11-13T05:36:48;125.93;;;38.83;;
2650;SDS011;1335;48.180;16.342;2022-11-13T05:39:15;148.47;;;40.77;;
2650;SDS011;1335;48.180;16.342;2022-11-13T05:41:42;147.17;;;41.87;;
2650;SDS011;1335;48.180;16.342;2022-11-13T05:44:10;105.03;;;43.07;;
2650;SDS011;1335;48.180;16.342;2022-11-13T05:46:37;126.73;;;41.77;;
2650;SDS011;1335;48.180;16.342;2022-11-13T05:49:05;77.40;;;40.00;;
2650;SDS011;1335;48.180;16.342;2022-11-13T05:51:33;121.57;;;40.43;;
2650;SDS011;1335;48.180;16.342;2022-11-13T05:54:00;118.67;;;39.40;;
2650;SDS011;1335;48.180;16.342;2022-11-13T05:56:28;130.97;;;39.07;;
2650;SDS011;1335;48.180;16.342;2022-11-13T05:58:58;139.87;;;39.40;;
2650;SDS011;1335;48.180;16.342;2022-11-13T06:01:27;89.07;;;36.90;;
2650;SDS011;1335;48.180;16.342;2022-11-13T06:03:57;165.03;;;39.90;;
2650;SDS011;1335;48.180;16.342;2022-11-13T06:06:27;135.60;;;38.30;;
2650;SDS011;1335;48.180;16.342;2022-11-13T06:08:55;152.33;;;41.97;;
2650;SDS011;1335;48.180;16.342;2022-11-13T06:11:25;140.83;;;45.27;;
2650;SDS011;1335;48.180;16.342;2022-11-13T06:13:53;73.43;;;38.83;;
2650;SDS011;1335;48.180;16.342;2022-11-13T06:16:22;118.50;;;39.67;;
2650;SDS011;1335;48.180;16.342;2022-11-13T06:18:52;139.73;;;40.47;;
2650;SDS011;1335;48.180;16.342;2022-11-13T06:21:21;179.50;;;41.53;;
2650;SDS011;1335;48.180;16.342;2022-11-13T06:23:55;135.00;;;39.97;;
2650;SDS011;1335;48.180;16.342;2022-11-13T06:26:23;92.10;;;40.83;;
2650;SDS011;1335;48.180;16.342;2022-11-13T06:28:53;138.03;;;41.73;;
2650;SDS011;1335;48.180;16.342;2022-11-13T06:31:21;147.10;;;42.00;;
2650;SDS011;1335;48.180;16.342;2022-11-13T06:33:49;101.60;;;38.43;;
2650;SDS011;1335;48.180;16.342;2022-11-13T06:36:17;104.57;;;41.07;;
2650;SDS011;1335;48.180;16.342;2022-11-13T06:38:46;122.60;;;41.23;;
2650;SDS011;1335;48.180;16.342;2022-11-13T06:41:16;107.47;;;38.90;;
2650;SDS011;1335;48.180;16.342;2022-11-13T06:43:45;118.30;;;40.90;;
2650;SDS011;1335;48.180;16.342;2022-11-13T06:46:13;88.57;;;41.07;;
2650;SDS011;1335;48.180;16.342;2022-11-13T06:48:41;125.37;;;40.97;;
2650;SDS011;1335;48.180;16.342;2022-11-13T06:51:10;137.90;;;42.77;;
2650;SDS011;1335;48.180;16.342;2022-11-13T06:53:39;175.33;;;42.53;;
2650;SDS011;1335;48.180;16.342;2022-11-13T06:56:07;120.27;;;40.50;;
2650;SDS011;1335;48.180;16.342;2022-11-13T06:58:39;103.77;;;41.50;;
2650;SDS011;1335;48.180;16.342;2022-11-13T07:01:08;104.03;;;36.93;;
2650;SDS011;1335;48.180;16.342;2022-11-13T07:03:36;86.50;;;41.40;;
2650;SDS011;1335;48.180;16.342;2022-11-13T07:06:04;154.10;;;41.30;;
2650;SDS011;1335;48.180;16.342;2022-11-13T07:08:32;129.10;;;42.43;;
2650;SDS011;1335;48.180;16.342;2022-11-13T07:11:00;112.67;;;40.53;;
2650;SDS011;1335;48.180;16.342;2022-11-13T07:13:27;129.47;;;42.97;;
2650;SDS011;1335;48.180;16.342;2022-11-13T07:15:59;137.50;;;38.90;;
2650;SDS011;1335;48.180;16.342;2022-11-13T07:18:28;173.50;;;41.50;;
2650;SDS011;1335;48.180;16.342;2022-11-13T07:20:55;85.13;;;35.70;;
2650;SDS011;1335;48.180;16.342;2022-11-13T07:23:22;95.53;;;39.27;;
2650;SDS011;1335;48.180;16.342;2022-11-13T07:25:51;88.50;;;40.70;;
2650;SDS011;1335;48.180;16.342;2022-11-13T07:28:19;105.53;;;40.83;;
2650;SDS011;1335;48.180;16.342;2022-11-13T07:30:47;158.97;;;41.83;;
2650;SDS011;1335;48.180;16.342;2022-11-13T07:33:15;107.83;;;39.83;;
2650;SDS011;1335;48.180;16.342;2022-11-13T07:35:42;126.63;;;40.33;;
2650;SDS011;1335;48.180;16.342;2022-11-13T07:38:09;121.60;;;38.60;;
2650;SDS011;1335;48.180;16.342;2022-11-13T07:40:36;109.77;;;39.67;;
2650;SDS011;1335;48.180;16.342;2022-11-13T07:43:04;141.93;;;39.47;;
2650;SDS011;1335;48.180;16.342;2022-11-13T07:45:31;100.60;;;39.17;;
2650;SDS011;1335;48.180;16.342;2022-11-13T07:47:58;78.50;;;40.37;;
2650;SDS011;1335;48.180;16.342;2022-11-13T07:50:27;82.60;;;42.17;;
2650;SDS011;1335;48.180;16.342;2022-11-13T07:52:56;106.50;;;40.70;;
2650;SDS011;1335;48.180;16.342;2022-11-13T07:55:23;70.03;;;40.23;;
2650;SDS011;1335;48.180;16.342;2022-11-13T07:57:53;78.17;;;40.63;;
2650;SDS011;1335;48.180;16.342;2022-11-13T08:00:22;58.40;;;38.60;;
2650;SDS011;1335;48.180;16.342;2022-11-13T08:02:50;55.87;;;38.23;;
2650;SDS011;1335;48.180;16.342;2022-11-13T08:05:17;62.70;;;37.63;;
2650;SDS011;1335;48.180;16.342;2022-11-13T08:07:47;86.10;;;35.30;;
2650;SDS011;1335;48.180;16.342;2022-11-13T08:10:15;57.17;;;36.50;;
2650;SDS011;1335;48.180;16.342;2022-11-13T08:12:43;71.33;;;34.93;;
2650;SDS011;1335;48.180;16.342;2022-11-13T08:15:11;65.97;;;34.67;;
2650;SDS011;1335;48.180;16.342;2022-11-13T08:17:39;75.17;;;34.97;;
2650;SDS011;1335;48.180;16.342;2022-11-13T08:20:07;71.03;;;35.03;;
2650;SDS011;1335;48.180;16.342;2022-11-13T08:22:35;89.70;;;33.00;;
2650;SDS011;1335;48.180;16.342;2022-11-13T08:25:04;64.73;;;32.90;;
2650;SDS011;1335;48.180;16.342;2022-11-13T08:27:31;53.87;;;31.43;;
2650;SDS011;1335;48.180;16.342;2022-11-13T08:29:59;62.47;;;34.67;;
2650;SDS011;1335;48.180;16.342;2022-11-13T08:32:26;63.53;;;35.47;;
2650;SDS011;1335;48.180;16.342;2022-11-13T08:34:54;56.20;;;35.83;;
2650;SDS011;1335;48.180;16.342;2022-11-13T08:37:22;73.77;;;32.03;;
2650;SDS011;1335;48.180;16.342;2022-11-13T08:39:53;66.63;;;37.07;;
2650;SDS011;1335;48.180;16.342;2022-11-13T08:42:25;49.10;;;32.87;;
2650;SDS011;1335;48.180;16.342;2022-11-13T08:44:53;58.10;;;34.53;;
2650;SDS011;1335;48.180;16.342;2022-11-13T08:47:20;53.60;;;34.13;;
2650;SDS011;1335;48.180;16.342;2022-11-13T08:49:47;55.50;;;34.20;;
2650;SDS011;1335;48.180;16.342;2022-11-13T08:52:14;56.50;;;35.47;;
2650;SDS011;1335;48.180;16.342;2022-11-13T08:54:42;50.50;;;34.60;;
2650;SDS011;1335;48.180;16.342;2022-11-13T08:57:10;62.20;;;33.67;;
2650;SDS011;1335;48.180;16.342;2022-11-13T08:59:39;48.20;;;32.93;;
2650;SDS011;1335;48.180;16.342;2022-11-13T09:02:06;51.33;;;33.07;;
2650;SDS011;1335;48.180;16.342;2022-11-13T09:04:38;51.00;;;33.20;;
2650;SDS011;1335;48.180;16.342;2022-11-13T09:07:05;46.33;;;32.77;;
2650;SDS011;1335;48.180;16.342;2022-11-13T09:09:35;41.07;;;30.93;;
2650;SDS011;1335;48.180;16.342;2022-11-13T09:12:04;44.90;;;32.27;;
2650;SDS011;1335;48.180;16.342;2022-11-13T09:14:31;43.60;;;32.60;;
2650;SDS011;1335;48.180;16.342;2022-11-13T09:17:00;48.70;;;33.33;;
2650;SDS011;1335;48.180;16.342;2022-11-13T09:19:27;46.80;;;32.30;;
2650;SDS011;1335;48.180;16.342;2022-11-13T09:21:54;46.10;;;30.87;;
2650;SDS011;1335;48.180;16.342;2022-11-13T09:24:21;42.70;;;30.10;;
2650;SDS011;1335;48.180;16.342;2022-11-13T09:26:51;40.30;;;30.80;;
2650;SDS011;1335;48.180;16.342;2022-11-13T09:29:21;44.93;;;29.50;;
2650;SDS011;1335;48.180;16.342;2022-11-13T09:31:50;41.47;;;30.80;;
2650;SDS011;1335;48.180;16.342;2022-11-13T09:34:20;48.47;;;31.83;;
2650;SDS011;1335;48.180;16.342;2022-11-13T09:36:51;45.20;;;33.30;;
2650;SDS011;1335;48.180;16.342;2022-11-13T09:39:19;40.47;;;30.03;;
2650;SDS011;1335;48.180;16.342;2022-11-13T09:41:47;45.53;;;30.00;;
2650;SDS011;1335;48.180;16.342;2022-11-13T09:44:23;42.43;;;30.10;;
2650;SDS011;1335;48.180;16.342;2022-11-13T09:47:02;43.87;;;31.80;;
2650;SDS011;1335;48.180;16.342;2022-11-13T09:49:38;42.10;;;29.27;;
2650;SDS011;1335;48.180;16.342;2022-11-13T09:52:10;41.67;;;30.67;;
2650;SDS011;1335;48.180;16.342;2022-11-13T09:54:40;43.27;;;31.17;;
2650;SDS011;1335;48.180;16.342;2022-11-13T09:57:10;37.93;;;29.10;;
2650;SDS011;1335;48.180;16.342;2022-11-13T09:59:46;42.50;;;29.80;;
2650;SDS011;1335;48.180;16.342;2022-11-13T10:02:20;37.20;;;29.57;;
2650;SDS011;1335;48.180;16.342;2022-11-13T10:04:54;36.10;;;29.40;;
2650;SDS011;1335;48.180;16.342;2022-11-13T10:07:30;34.57;;;27.50;;
2650;SDS011;1335;48.180;16.342;2022-11-13T10:10:12;32.23;;;25.30;;
2650;SDS011;1335;48.180;16.342;2022-11-13T10:12:55;33.03;;;25.03;;
2650;SDS011;1335;48.180;16.342;2022-11-13T10:15:24;34.70;;;27.07;;
2650;SDS011;1335;48.180;16.342;2022-11-13T10:17:52;34.97;;;26.60;;
2650;SDS011;1335;48.180;16.342;2022-11-13T10:20:31;33.83;;;28.60;;
2650;SDS011;1335;48.180;16.342;2022-11-13T10:23:05;31.70;;;27.17;;
2650;SDS011;1335;48.180;16.342;2022-11-13T10:25:35;31.63;;;27.50;;
2650;SDS011;1335;48.180;16.342;2022-11-13T10:28:08;36.37;;;28.10;;
2650;SDS011;1335;48.180;16.342;2022-11-13T10:30:39;37.30;;;28.50;;
2650;SDS011;1335;48.180;16.342;2022-11-13T10:33:07;36.97;;;29.73;;
2650;SDS011;1335;48.180;16.342;2022-11-13T10:35:45;34.37;;;27.77;;
2650;SDS011;1335;48.180;16.342;2022-11-13T10:38:23;36.20;;;27.20;;
2650;SDS011;1335;48.180;16.342;2022-11-13T10:41:02;41.47;;;29.37;;
2650;SDS011;1335;48.180;16.342;2022-11-13T10:43:32;36.70;;;29.40;;
2650;SDS011;1335;48.180;16.342;2022-11-13T10:46:03;33.97;;;28.87;;
2650;SDS011;1335;48.180;16.342;2022-11-13T10:48:32;30.57;;;26.13;;
2650;SDS011;1335;48.180;16.342;2022-11-13T10:51:05;30.23;;;25.67;;
2650;SDS011;1335;48.180;16.342;2022-11-13T10:53:46;28.67;;;24.73;;
2650;SDS011;1335;48.180;16.342;2022-11-13T10:56:20;27.90;;;24.10;;
2650;SDS011;1335;48.180;16.342;2022-11-13T10:59:00;26.90;;;23.80;;
2650;SDS011;1335;48.180;16.342;2022-11-13T11:01:29;25.87;;;23.00;;
2650;SDS011;1335;48.180;16.342;2022-11-13T11:03:58;26.20;;;23.33;;
2650;SDS011;1335;48.180;16.342;2022-11-13T11:06:33;23.43;;;20.10;;
2650;SDS011;1335;48.180;16.342;2022-11-13T11:09:05;25.63;;;21.20;;
2650;SDS011;1335;48.180;16.342;2022-11-13T11:11:58;21.20;;;19.03;;
2650;SDS011;1335;48.180;16.342;2022-11-13T11:15:04;20.40;;;18.20;;
2650;SDS011;1335;48.180;16.342;2022-11-13T11:18:02;19.50;;;17.50;;
2650;SDS011;1335;48.180;16.342;2022-11-13T11:20:37;21.60;;;17.53;;
2650;SDS011;1335;48.180;16.342;2022-11-13T11:26:02;19.17;;;17.27;;
2650;SDS011;1335;48.180;16.342;2022-11-13T11:28:37;17.47;;;15.70;;
2650;SDS011;1335;48.180;16.342;2022-11-13T11:31:10;18.37;;;16.57;;
2650;SDS011;1335;48.180;16.342;2022-11-13T11:34:13;18.00;;;16.20;;
2650;SDS011;1335;48.180;16.342;2022-11-13T11:36:48;15.87;;;14.40;;
2650;SDS011;1335;48.180;16.342;2022-11-13T11:39:26;16.93;;;15.33;;
2650;SDS011;1335;48.180;16.342;2022-11-13T11:41:59;17.40;;;15.70;;
2650;SDS011;1335;48.180;16.342;2022-11-13T11:44:38;15.40;;;14.00;;
2650;SDS011;1335;48.180;16.342;2022-11-13T11:47:16;15.63;;;14.10;;
2650;SDS011;1335;48.180;16.342;2022-11-13T11:49:44;17.47;;;15.73;;
2650;SDS011;1335;48.180;16.342;2022-11-13T11:52:16;16.40;;;14.90;;
2650;SDS011;1335;48.180;16.342;2022-11-13T11:54:56;15.90;;;13.93;;
2650;SDS011;1335;48.180;16.342;2022-11-13T11:57:36;15.70;;;14.17;;
2650;SDS011;1335;48.180;16.342;2022-11-13T12:00:17;15.60;;;13.63;;
2650;SDS011;1335;48.180;16.342;2022-11-13T12:06:16;15.70;;;14.20;;
2650;SDS011;1335;48.180;16.342;2022-11-13T12:08:54;16.20;;;14.67;;
2650;SDS011;1335;48.180;16.342;2022-11-13T12:11:30;16.90;;;15.00;;
2650;SDS011;1335;48.180;16.342;2022-11-13T12:14:02;16.10;;;14.50;;
2650;SDS011;1335;48.180;16.342;2022-11-13T12:16:37;18.00;;;16.20;;
2650;SDS011;1335;48.180;16.342;2022-11-13T12:19:14;16.97;;;15.17;;
2650;SDS011;1335;48.180;16.342;2022-11-13T12:21:50;16.87;;;15.27;;
2650;SDS011;1335;48.180;16.342;2022-11-13T12:24:32;20.07;;;14.83;;
2650;SDS011;1335;48.180;16.342;2022-11-13T12:27:17;15.50;;;14.10;;
2650;SDS011;1335;48.180;16.342;2022-11-13T12:29:54;16.90;;;14.17;;
2650;SDS011;1335;48.180;16.342;2022-11-13T12:32:32;14.33;;;12.93;;
2650;SDS011;1335;48.180;16.342;2022-11-13T12:35:10;18.27;;;13.50;;
2650;SDS011;1335;48.180;16.342;2022-11-13T12:37:42;15.20;;;13.70;;
2650;SDS011;1335;48.180;16.342;2022-11-13T12:40:25;15.43;;;14.00;;
2650;SDS011;1335;48.180;16.342;2022-11-13T12:43:04;15.13;;;13.57;;
2650;SDS011;1335;48.180;16.342;2022-11-13T12:45:48;14.60;;;13.20;;
2650;SDS011;1335;48.180;16.342;2022-11-13T12:48:20;16.30;;;13.57;;
2650;SDS011;1335;48.180;16.342;2022-11-13T12:50:57;15.13;;;13.40;;
2650;SDS011;1335;48.180;16.342;2022-11-13T12:53:43;14.27;;;12.87;;
2650;SDS011;1335;48.180;16.342;2022-11-13T12:56:16;14.37;;;12.73;;
2650;SDS011;1335;48.180;16.342;2022-11-13T12:58:58;15.07;;;13.57;;
2650;SDS011;1335;48.180;16.342;2022-11-13T13:01:34;16.10;;;13.50;;
2650;SDS011;1335;48.180;16.342;2022-11-13T13:07:22;15.13;;;13.60;;
2650;SDS011;1335;48.180;16.342;2022-11-13T13:10:09;15.40;;;13.90;;
2650;SDS011;1335;48.180;16.342;2022-11-13T13:12:50;17.00;;;14.93;;
2650;SDS011;1335;48.180;16.342;2022-11-13T13:15:31;16.10;;;14.23;;
2650;SDS011;1335;48.180;16.342;2022-11-13T13:18:09;19.43;;;15.80;;
2650;SDS011;1335;48.180;16.342;2022-11-13T13:20:39;15.50;;;13.90;;
2650;SDS011;1335;48.180;16.342;2022-11-13T13:23:12;16.50;;;14.80;;
2650;SDS011;1335;48.180;16.342;2022-11-13T13:26:00;17.07;;;14.93;;
2650;SDS011;1335;48.180;16.342;2022-11-13T13:28:29;19.03;;;16.27;;
2650;SDS011;1335;48.180;16.342;2022-11-13T13:31:01;17.13;;;15.43;;
2650;SDS011;1335;48.180;16.342;2022-11-13T13:33:36;18.00;;;15.93;;
2650;SDS011;1335;48.180;16.342;2022-11-13T13:36:19;19.00;;;16.87;;
2650;SDS011;1335;48.180;16.342;2022-11-13T13:39:01;18.83;;;16.80;;
2650;SDS011;1335;48.180;16.342;2022-11-13T13:41:49;20.60;;;18.13;;
2650;SDS011;1335;48.180;16.342;2022-11-13T13:47:27;22.80;;;19.07;;
2650;SDS011;1335;48.180;16.342;2022-11-13T13:49:58;21.30;;;19.00;;
2650;SDS011;1335;48.180;16.342;2022-11-13T13:52:42;21.43;;;18.73;;
2650;SDS011;1335;48.180;16.342;2022-11-13T13:55:15;21.10;;;18.50;;
2650;SDS011;1335;48.180;16.342;2022-11-13T13:57:44;20.40;;;18.30;;
2650;SDS011;1335;48.180;16.342;2022-11-13T14:00:13;23.20;;;20.77;;
2650;SDS011;1335;48.180;16.342;2022-11-13T14:02:46;23.73;;;21.17;;
2650;SDS011;1335;48.180;16.342;2022-11-13T14:05:25;26.63;;;21.83;;
2650;SDS011;1335;48.180;16.342;2022-11-13T14:07:56;26.20;;;22.47;;
2650;SDS011;1335;48.180;16.342;2022-11-13T14:10:41;30.77;;;24.77;;
2650;SDS011;1335;48.180;16.342;2022-11-13T14:13:10;28.10;;;23.27;;
2650;SDS011;1335;48.180;16.342;2022-11-13T14:15:42;29.07;;;23.33;;
2650;SDS011;1335;48.180;16.342;2022-11-13T14:18:12;28.70;;;24.30;;
2650;SDS011;1335;48.180;16.342;2022-11-13T14:20:54;27.80;;;24.90;;
2650;SDS011;1335;48.180;16.342;2022-11-13T14:23:50;30.70;;;23.77;;
2650;SDS011;1335;48.180;16.342;2022-11-13T14:26:54;29.73;;;23.80;;
2650;SDS011;1335;48.180;16.342;2022-11-13T14:29:47;29.33;;;22.93;;
2650;SDS011;1335;48.180;16.342;2022-11-13T14:32:38;30.43;;;24.73;;
2650;SDS011;1335;48.180;16.342;2022-11-13T14:38:41;29.90;;;25.40;;
2650;SDS011;1335;48.180;16.342;2022-11-13T14:41:27;30.10;;;25.13;;
2650;SDS011;1335;48.180;16.342;2022-11-13T14:44:24;35.63;;;26.60;;
2650;SDS011;1335;48.180;16.342;2022-11-13T14:46:59;32.10;;;25.57;;
2650;SDS011;1335;48.180;16.342;2022-11-13T14:49:43;32.80;;;27.03;;
2650;SDS011;1335;48.180;16.342;2022-11-13T14:52:29;32.83;;;26.23;;
2650;SDS011;1335;48.180;16.342;2022-11-13T14:55:54;36.70;;;28.83;;
2650;SDS011;1335;48.180;16.342;2022-11-13T14:59:15;40.67;;;28.70;;
2650;SDS011;1335;48.180;16.342;2022-11-13T15:02:01;39.57;;;30.67;;
2650;SDS011;1335;48.180;16.342;2022-11-13T15:04:32;42.57;;;32.23;;
2650;SDS011;1335;48.180;16.342;2022-11-13T15:07:01;36.70;;;28.67;;
2650;SDS011;1335;48.180;16.342;2022-11-13T15:09:47;37.17;;;29.60;;
2650;SDS011;1335;48.180;16.342;2022-11-13T15:12:16;39.40;;;29.30;;
2650;SDS011;1335;48.180;16.342;2022-11-13T15:14:43;35.47;;;29.50;;